createdAt,value
2022-08-24T00:01:24.102Z,8.18
2022-08-24T00:04:51.043Z,12.40
2022-08-24T00:08:19.269Z,10.85
2022-08-24T00:11:45.513Z,6.72
2022-08-24T00:15:13.172Z,9.68
2022-08-24T00:18:39.801Z,8.55
2022-08-24T00:22:06.687Z,8.27
2022-08-24T00:25:32.611Z,10.52
2022-08-24T00:28:59.100Z,13.13
2022-08-24T00:32:25.167Z,9.48
2022-08-24T00:35:50.985Z,12.43
2022-08-24T00:39:16.954Z,8.98
2022-08-24T00:42:43.950Z,10.82
2022-08-24T00:46:17.574Z,10.13
2022-08-24T00:49:54.761Z,8.70
2022-08-24T00:53:25.382Z,13.02
2022-08-24T00:57:00.567Z,9.95
2022-08-24T01:00:32.562Z,12.02
2022-08-24T01:04:01.344Z,8.40
2022-08-24T01:07:29.395Z,11.85
2022-08-24T01:11:08.472Z,8.80
2022-08-24T01:14:40.743Z,9.45
2022-08-24T01:18:26.317Z,10.38
2022-08-24T01:22:02.824Z,7.93
2022-08-24T01:25:30.436Z,13.73
2022-08-24T01:29:02.669Z,11.20
2022-08-24T01:32:31.225Z,9.27
2022-08-24T01:36:16.688Z,11.07
2022-08-24T01:39:44.889Z,8.95
2022-08-24T01:43:11.508Z,9.48
2022-08-24T01:46:37.395Z,13.70
2022-08-24T01:50:04.684Z,6.53
2022-08-24T01:53:30.465Z,11.15
2022-08-24T01:56:57.661Z,12.38
2022-08-24T02:00:24.986Z,13.18
2022-08-24T02:03:51.913Z,10.93
2022-08-24T02:07:20.651Z,8.60
2022-08-24T02:10:52.962Z,11.65
2022-08-24T02:14:22.384Z,11.68
2022-08-24T02:17:50.988Z,7.93
2022-08-24T02:21:17.120Z,11.20
2022-08-24T02:24:42.818Z,9.38
2022-08-24T02:28:08.440Z,10.77
2022-08-24T02:31:34.869Z,10.82
2022-08-24T02:35:00.940Z,8.25
2022-08-24T02:38:26.845Z,10.13
2022-08-24T02:41:53.553Z,5.78
2022-08-24T02:45:20.063Z,9.60
2022-08-24T02:48:46.280Z,8.63
2022-08-24T02:52:25.454Z,5.82
2022-08-24T02:55:51.509Z,9.10
2022-08-24T02:59:17.912Z,6.75
2022-08-24T03:02:44.371Z,5.80
2022-08-24T03:06:11.406Z,10.23
2022-08-24T03:09:37.131Z,11.18
2022-08-24T03:13:03.402Z,8.73
2022-08-24T03:16:29.571Z,7.40
2022-08-24T03:19:55.812Z,8.35
2022-08-24T03:23:22.351Z,10.20
2022-08-24T03:26:48.607Z,6.20
2022-08-24T03:30:15.641Z,6.03
2022-08-24T03:33:44.186Z,7.43
2022-08-24T03:37:10.327Z,9.50
2022-08-24T03:40:36.781Z,7.78
2022-08-24T03:44:03.253Z,9.20
2022-08-24T03:47:29.487Z,7.32
2022-08-24T03:50:55.525Z,6.15
2022-08-24T03:54:21.698Z,9.32
2022-08-24T03:57:47.744Z,10.73
2022-08-24T04:04:45.328Z,7.22
2022-08-24T04:08:11.397Z,7.07
2022-08-24T04:11:40.958Z,7.15
2022-08-24T04:15:17.195Z,6.82
2022-08-24T04:18:43.818Z,6.30
2022-08-24T04:22:17.643Z,10.30
2022-08-24T04:25:44.909Z,7.47
2022-08-24T04:29:12.764Z,5.93
2022-08-24T04:32:42.822Z,9.00
2022-08-24T04:36:09.533Z,5.45
2022-08-24T04:39:38.454Z,7.82
2022-08-24T04:43:19.499Z,10.07
2022-08-24T04:46:46.884Z,13.55
2022-08-24T04:50:12.901Z,9.77
2022-08-24T04:53:39.207Z,6.97
2022-08-24T04:57:10.976Z,6.43
2022-08-24T05:00:38.810Z,7.22
2022-08-24T05:04:06.198Z,7.43
2022-08-24T05:07:32.581Z,6.57
2022-08-24T05:10:59.793Z,9.05
2022-08-24T05:14:28.795Z,14.48
2022-08-24T05:17:55.086Z,9.38
2022-08-24T05:21:21.966Z,13.02
2022-08-24T05:24:49.237Z,7.75
2022-08-24T05:28:20.737Z,7.20
2022-08-24T05:31:46.846Z,8.57
2022-08-24T05:35:16.015Z,7.18
2022-08-24T05:38:41.717Z,7.75
2022-08-24T05:42:10.253Z,7.85
2022-08-24T05:45:43.587Z,7.22
2022-08-24T05:49:10.841Z,9.25
2022-08-24T05:52:37.743Z,7.93
2022-08-24T05:56:06.401Z,15.30
2022-08-24T05:59:32.350Z,13.15
2022-08-24T06:03:01.676Z,8.02
2022-08-24T06:06:28.949Z,11.32
2022-08-24T06:09:55.946Z,15.45
2022-08-24T06:13:21.645Z,12.27
2022-08-24T06:16:48.823Z,9.10
2022-08-24T06:20:15.889Z,9.20
2022-08-24T06:23:44.225Z,7.82
2022-08-24T06:27:23.666Z,10.52
2022-08-24T06:31:01.611Z,12.70
2022-08-24T06:34:28.140Z,12.63
2022-08-24T06:37:53.900Z,13.50
2022-08-24T06:41:21.938Z,14.15
2022-08-24T06:44:48.195Z,12.85
2022-08-24T06:48:20.064Z,14.07
2022-08-24T06:51:50.653Z,19.00
2022-08-24T06:55:20.589Z,14.73
2022-08-24T06:58:46.328Z,18.42
2022-08-24T07:02:19.206Z,21.60
2022-08-24T07:05:53.644Z,24.67
2022-08-24T07:09:38.487Z,20.17
2022-08-24T07:13:04.800Z,17.00
2022-08-24T07:16:31.258Z,11.52
2022-08-24T07:20:00.732Z,16.95
2022-08-24T07:23:50.281Z,15.70
2022-08-24T07:27:18.694Z,20.40
2022-08-24T07:30:44.579Z,11.70
2022-08-24T07:34:12.728Z,19.65
2022-08-24T07:37:42.189Z,22.47
2022-08-24T07:41:36.645Z,11.70
2022-08-24T07:44:57.566Z,12.70
2022-08-24T07:48:23.582Z,11.20
2022-08-24T07:51:53.392Z,11.90
2022-08-24T07:55:19.823Z,10.93
2022-08-24T07:58:54.577Z,8.23
2022-08-24T08:02:21.256Z,12.38
2022-08-24T08:05:55.989Z,6.65
2022-08-24T08:09:24.557Z,9.65
2022-08-24T08:12:52.137Z,16.55
2022-08-24T08:16:20.697Z,8.37
2022-08-24T08:19:46.710Z,12.82
2022-08-24T08:23:32.242Z,9.77
2022-08-24T08:27:28.689Z,7.05
2022-08-24T08:30:54.867Z,8.95
2022-08-24T08:34:21.066Z,7.40
2022-08-24T08:37:47.098Z,9.32
2022-08-24T08:41:49.552Z,8.43
2022-08-24T08:45:30.730Z,9.30
2022-08-24T08:49:53.480Z,12.88
2022-08-24T08:54:05.638Z,7.80
2022-08-24T08:57:46.173Z,11.07
2022-08-24T09:01:32.998Z,11.68
2022-08-24T09:05:24.835Z,8.00
2022-08-24T09:09:08.484Z,8.60
2022-08-24T09:12:43.864Z,7.18
2022-08-24T09:16:41.577Z,9.43
2022-08-24T09:20:13.977Z,11.93
2022-08-24T09:23:41.674Z,9.23
2022-08-24T09:27:16.517Z,9.20
2022-08-24T09:31:13.777Z,12.07
2022-08-24T09:35:10.081Z,10.30
2022-08-24T09:39:08.319Z,11.70
2022-08-24T09:42:46.315Z,8.43
2022-08-24T09:46:26.155Z,8.38
2022-08-24T09:50:11.048Z,10.48
2022-08-24T09:54:07.849Z,10.98
2022-08-24T09:57:59.912Z,6.43
2022-08-24T10:01:32.682Z,8.52
2022-08-24T10:05:22.536Z,6.13
2022-08-24T10:09:24.113Z,13.35
2022-08-24T10:13:10.343Z,6.82
2022-08-24T10:16:51.381Z,8.30
2022-08-24T10:20:52.570Z,9.48
2022-08-24T10:24:47.024Z,8.80
2022-08-24T10:28:45.095Z,10.95
2022-08-24T10:32:39.305Z,8.05
2022-08-24T10:36:12.368Z,7.30
2022-08-24T10:39:58.884Z,10.63
2022-08-24T10:43:46.566Z,6.93
2022-08-24T10:47:36.612Z,7.25
2022-08-24T10:51:46.481Z,10.60
2022-08-24T10:55:24.165Z,7.40
2022-08-24T10:59:27.532Z,7.97
2022-08-24T11:03:11.081Z,11.65
2022-08-24T11:07:06.981Z,12.00
2022-08-24T11:11:07.206Z,6.53
2022-08-24T11:14:34.317Z,9.23
2022-08-24T11:18:14.535Z,5.53
2022-08-24T11:21:53.239Z,7.63
2022-08-24T11:25:32.441Z,15.30
2022-08-24T11:29:05.032Z,9.80
2022-08-24T11:32:51.315Z,13.95
2022-08-24T11:36:36.445Z,12.55
2022-08-24T11:40:25.690Z,15.20
2022-08-24T11:43:54.726Z,11.05
2022-08-24T11:47:50.233Z,8.52
2022-08-24T11:51:44.046Z,7.35
2022-08-24T11:55:27.482Z,7.47
2022-08-24T11:59:36.221Z,9.18
2022-08-24T12:03:28.338Z,7.30
2022-08-24T12:06:55.584Z,6.75
2022-08-24T12:10:42.058Z,11.82
2022-08-24T12:14:39.414Z,8.27
2022-08-24T12:18:22.255Z,10.00
2022-08-24T12:21:51.220Z,6.38
2022-08-24T12:25:38.431Z,7.63
2022-08-24T12:32:39.500Z,11.15
2022-08-24T12:36:10.918Z,6.72
2022-08-24T12:40:11.361Z,9.18
2022-08-24T12:43:58.011Z,10.93
2022-08-24T12:47:44.987Z,11.02
2022-08-24T12:51:49.572Z,11.18
2022-08-24T12:55:25.912Z,10.93
2022-08-24T12:59:07.054Z,9.73
2022-08-24T13:02:48.085Z,10.88
2022-08-24T13:06:29.254Z,10.25
2022-08-24T13:10:11.762Z,8.38
2022-08-24T13:13:45.414Z,14.23
2022-08-24T13:17:40.780Z,6.85
2022-08-24T13:21:35.377Z,8.05
2022-08-24T13:25:24.974Z,9.10
2022-08-24T13:29:01.631Z,8.98
2022-08-24T13:32:44.596Z,9.40
2022-08-24T13:36:31.900Z,11.73
2022-08-24T13:40:19.936Z,11.23
2022-08-24T13:44:13.869Z,13.48
2022-08-24T13:48:04.452Z,10.38
2022-08-24T13:51:45.420Z,6.80
2022-08-24T13:55:14.055Z,10.55
2022-08-24T13:59:06.955Z,7.38
2022-08-24T14:02:54.995Z,7.78
2022-08-24T14:06:52.994Z,7.88
2022-08-24T14:10:49.452Z,13.73
2022-08-24T14:15:01.473Z,8.95
2022-08-24T14:18:52.106Z,10.00
2022-08-24T14:22:23.488Z,8.48
2022-08-24T14:26:14.063Z,10.38
2022-08-24T14:29:42.534Z,7.13
2022-08-24T14:33:18.452Z,11.80
2022-08-24T14:37:04.672Z,10.83
2022-08-24T14:40:42.242Z,9.10
2022-08-24T14:44:17.589Z,11.98
2022-08-24T14:47:53.849Z,14.82
2022-08-24T14:52:16.289Z,19.15
2022-08-24T14:56:15.251Z,18.63
2022-08-24T14:59:55.290Z,12.60
2022-08-24T15:03:58.740Z,9.05
2022-08-24T15:07:32.658Z,7.53
2022-08-24T15:11:10.811Z,12.07
2022-08-24T15:18:31.619Z,11.95
2022-08-24T15:22:30.007Z,10.70
2022-08-24T15:26:14.125Z,13.32
2022-08-24T15:29:53.715Z,10.73
2022-08-24T15:33:20.725Z,10.77
2022-08-24T15:36:59.478Z,12.40
2022-08-24T15:40:30.085Z,14.52
2022-08-24T15:44:05.668Z,15.63
2022-08-24T15:47:40.047Z,12.20
2022-08-24T15:51:07.989Z,13.13
2022-08-24T15:54:45.922Z,14.63
2022-08-24T15:58:15.039Z,10.77
2022-08-24T16:01:59.561Z,12.20
2022-08-24T16:05:40.515Z,13.30
2022-08-24T16:09:09.929Z,17.10
2022-08-24T16:12:36.472Z,8.82
2022-08-24T16:16:32.125Z,9.50
2022-08-24T16:20:02.187Z,9.23
2022-08-24T16:23:33.855Z,10.80
2022-08-24T16:27:20.158Z,12.15
2022-08-24T16:30:56.033Z,9.05
2022-08-24T16:34:32.969Z,10.73
2022-08-24T16:38:00.168Z,12.17
2022-08-24T16:41:28.008Z,10.57
2022-08-24T16:44:54.772Z,8.63
2022-08-24T16:48:22.336Z,10.60
2022-08-24T16:51:48.276Z,8.50
2022-08-24T16:55:14.627Z,11.88
2022-08-24T16:58:41.113Z,13.63
2022-08-24T17:02:07.015Z,14.50
2022-08-24T17:05:37.880Z,7.72
2022-08-24T17:09:05.476Z,11.07
2022-08-24T17:12:33.147Z,10.13
2022-08-24T17:16:01.013Z,10.30
2022-08-24T17:19:30.808Z,9.68
2022-08-24T17:22:57.463Z,12.02
2022-08-24T17:26:27.087Z,14.75
2022-08-24T17:29:57.842Z,10.30
2022-08-24T17:33:23.914Z,12.23
2022-08-24T17:37:00.037Z,11.20
2022-08-24T17:40:26.938Z,8.73
2022-08-24T17:43:53.118Z,8.57
2022-08-24T17:47:19.574Z,8.43
2022-08-24T17:50:45.907Z,9.27
2022-08-24T17:54:12.400Z,19.83
2022-08-24T17:57:38.640Z,11.63
2022-08-24T18:01:06.334Z,16.95
2022-08-24T18:04:33.038Z,12.73
2022-08-24T18:11:49.844Z,16.45
2022-08-24T18:15:18.378Z,12.40
2022-08-24T18:18:52.910Z,14.63
2022-08-24T18:22:19.835Z,10.07
2022-08-24T18:25:47.980Z,13.88
2022-08-24T18:29:19.120Z,20.75
2022-08-24T18:32:49.532Z,28.15
2022-08-24T18:36:15.562Z,17.27
2022-08-24T18:39:43.441Z,19.40
2022-08-24T18:43:12.565Z,20.52
2022-08-24T18:46:40.169Z,17.13
2022-08-24T18:50:08.133Z,18.43
2022-08-24T18:53:39.468Z,15.60
2022-08-24T18:57:07.331Z,14.18
2022-08-24T19:00:35.605Z,14.73
2022-08-24T19:04:10.701Z,16.95
2022-08-24T19:07:41.082Z,14.80
2022-08-24T19:14:33.907Z,14.57
2022-08-24T19:17:59.765Z,10.63
2022-08-24T19:21:27.394Z,13.00
2022-08-24T19:24:53.942Z,13.98
2022-08-24T19:28:19.957Z,14.00
2022-08-24T19:31:46.645Z,18.92
2022-08-24T19:35:15.520Z,12.68
2022-08-24T19:38:42.251Z,20.83
2022-08-24T19:42:11.023Z,18.27
2022-08-24T19:45:55.835Z,19.23
2022-08-24T19:49:21.758Z,17.40
2022-08-24T19:52:49.097Z,19.05
2022-08-24T19:56:15.101Z,17.33
2022-08-24T20:00:27.603Z,15.13
2022-08-24T20:03:54.605Z,12.32
2022-08-24T20:07:21.374Z,17.05
2022-08-24T20:10:47.750Z,15.48
2022-08-24T20:14:13.739Z,15.85
2022-08-24T20:17:40.921Z,15.02
2022-08-24T20:21:09.760Z,14.95
2022-08-24T20:24:36.216Z,13.45
2022-08-24T20:28:27.746Z,15.23
2022-08-24T20:31:52.596Z,15.65
2022-08-24T20:35:18.618Z,12.32
2022-08-24T20:38:44.952Z,14.68
2022-08-24T20:42:14.965Z,15.27
2022-08-24T20:45:43.285Z,13.50
2022-08-24T20:49:12.333Z,23.92
2022-08-24T20:52:42.796Z,15.63
2022-08-24T20:56:12.066Z,17.35
2022-08-24T20:59:39.017Z,12.93
2022-08-24T21:03:05.150Z,16.65
2022-08-24T21:06:31.305Z,16.13
2022-08-24T21:09:57.745Z,14.38
2022-08-24T21:13:23.775Z,22.55
2022-08-24T21:16:49.770Z,26.63
2022-08-24T21:20:15.846Z,22.10
2022-08-24T21:23:42.308Z,16.42
2022-08-24T21:27:10.264Z,18.37
2022-08-24T21:30:36.165Z,21.80
2022-08-24T21:34:20.464Z,18.75
2022-08-24T21:37:47.184Z,13.63
2022-08-24T21:41:13.257Z,18.30
2022-08-24T21:44:39.374Z,15.50
2022-08-24T21:48:06.299Z,18.20
2022-08-24T21:51:32.660Z,14.85
2022-08-24T21:54:59.790Z,12.63
2022-08-24T21:58:26.298Z,12.48
2022-08-24T22:01:52.347Z,14.63
2022-08-24T22:05:18.523Z,11.05
2022-08-24T22:08:44.702Z,17.60
2022-08-24T22:12:11.837Z,15.98
2022-08-24T22:15:38.065Z,17.40
2022-08-24T22:19:04.381Z,14.48
2022-08-24T22:22:30.610Z,13.95
2022-08-24T22:25:56.531Z,18.48
2022-08-24T22:29:22.505Z,13.80
2022-08-24T22:32:48.339Z,12.88
2022-08-24T22:36:15.052Z,16.13
2022-08-24T22:39:41.496Z,14.32
2022-08-24T22:43:07.301Z,17.38
2022-08-24T22:46:33.740Z,16.08
2022-08-24T22:50:00.040Z,9.57
2022-08-24T22:53:27.197Z,15.15
2022-08-24T22:56:54.230Z,9.68
2022-08-24T23:00:23.769Z,11.23
2022-08-24T23:03:52.454Z,12.63
2022-08-24T23:07:19.365Z,16.77
2022-08-24T23:10:45.711Z,13.60
2022-08-24T23:14:11.798Z,12.88
2022-08-24T23:17:38.494Z,15.48
2022-08-24T23:21:04.884Z,13.25
2022-08-24T23:24:30.822Z,16.15
2022-08-24T23:27:57.395Z,15.77
2022-08-24T23:31:23.410Z,13.70
2022-08-24T23:34:49.468Z,19.73
2022-08-24T23:38:16.557Z,20.02
2022-08-24T23:45:17.781Z,14.18
2022-08-24T23:48:43.625Z,13.82
2022-08-24T23:52:26.719Z,19.83
2022-08-24T23:55:55.244Z,14.93
2022-08-24T23:59:25.267Z,13.45
